Pagina principale
METAR-TAF:

METAR-TAF

Aeroporti :

Frosinone, Italia

latitudine: 41-38N, longitudine: 013-18E, altezza: 180 m

Osservazione

Il bollettino è stato emesso 46 minuti fa, alle 19:55 UTC
Vento 4 kt da nord/nord-est
Temperature 23°C
Umidità 69%
Pressione 1005 hPa
Visibilità 10 km o più
Poco nuvoloso ad un'altezza di 3000 ft, Cumulonembo.
Nubi sparse ad un'altezza di 3500 ft
pioggia debole

METAR: LIRH 251955Z 03004KT 9999 -RA FEW030CB SCT035 23/17 Q1005 RMK BKN MON INVIS VAR RAPID VIS MIN 9999 WIND THR16 /////KT BLU

Ora: 22:41 (20:41 UTC)

Previsione

Il bollettino è stato emesso 41 minuti fa, alle 20:00 UTC
Previsione valida dal 25 alle 21 UTC al 26 alle 06 UTC
Vento 3 kt da direzioni variabili
Visibilità 10 km o più
Nubi sparse ad un'altezza di 3000 ft

TAF: LIRH 252000Z 2521/2606 VRB03KT 9999 SCT030

Osservazioni e previsioni meteorologiche di più di 4000 aeroporti (messaggi METAR e TAF).

Le stazioni disponibili sono rappresentate dai dischi gialli e rossi sulla carta.

Puntare il mouse per vedere il nome della stazione.

Clicca sopra per visualizzare le osservazioni e previsioni meteorologiche.

Per cambiare la mappa : fare clic sui pulsanti verdi con una croce nera per ingrandire, il pulsante verde con un trattino per diminuire, o sulla freccia verde per le mappe adiacenti.


METAR-TAF: